createdAt,value
2018-08-22T00:00:16.578Z,0.00
2018-08-22T00:01:16.597Z,0.00
2018-08-22T00:02:16.547Z,0.00
2018-08-22T00:03:16.347Z,0.00
2018-08-22T00:04:17.378Z,0.00
2018-08-22T00:05:16.168Z,0.00
2018-08-22T00:06:16.223Z,0.00
2018-08-22T00:07:16.014Z,0.00
2018-08-22T00:08:16.068Z,0.00
2018-08-22T00:09:15.847Z,0.00
2018-08-22T00:10:15.833Z,0.00
2018-08-22T00:11:15.702Z,0.00
2018-08-22T00:12:15.741Z,0.00
2018-08-22T00:13:15.569Z,0.00
2018-08-22T00:14:15.571Z,0.00
2018-08-22T00:15:15.465Z,0.00
2018-08-22T00:16:15.370Z,0.00
2018-08-22T00:17:15.241Z,0.00
2018-08-22T00:18:15.213Z,0.00
2018-08-22T00:19:15.072Z,0.00
2018-08-22T00:20:15.079Z,0.00
2018-08-22T00:21:14.964Z,0.00
2018-08-22T00:22:14.892Z,0.00
2018-08-22T00:23:14.787Z,0.00
2018-08-22T00:24:14.806Z,0.00
2018-08-22T00:25:14.618Z,0.00
2018-08-22T00:26:14.677Z,0.00
2018-08-22T00:27:14.459Z,0.00
2018-08-22T00:28:14.423Z,0.00
2018-08-22T00:29:14.432Z,0.00
2018-08-22T00:30:14.337Z,0.00
2018-08-22T00:31:14.150Z,0.00
2018-08-22T00:32:14.136Z,0.00
2018-08-22T00:33:13.987Z,0.00
2018-08-22T00:34:13.994Z,0.00
2018-08-22T00:35:13.833Z,0.00
2018-08-22T00:36:13.863Z,0.00
2018-08-22T00:37:13.669Z,0.00
2018-08-22T00:38:13.664Z,0.00
2018-08-22T00:39:13.539Z,0.00
2018-08-22T00:40:13.520Z,0.00
2018-08-22T00:41:13.364Z,0.00
2018-08-22T00:42:13.383Z,0.00
2018-08-22T00:43:13.210Z,0.00
2018-08-22T00:44:13.191Z,0.00
2018-08-22T00:45:13.056Z,0.00
2018-08-22T00:46:12.998Z,0.00
2018-08-22T00:47:12.883Z,0.00
2018-08-22T00:48:12.914Z,0.00
2018-08-22T00:49:12.727Z,0.00
2018-08-22T00:50:12.762Z,0.00
2018-08-22T00:51:12.626Z,0.00
2018-08-22T00:53:54.809Z,0.00
2018-08-22T00:54:54.842Z,0.00
2018-08-22T00:55:54.679Z,0.00
2018-08-22T00:56:54.639Z,0.00
2018-08-22T00:57:54.499Z,0.00
2018-08-22T00:58:54.468Z,0.00
2018-08-22T01:02:39.418Z,0.00
2018-08-22T01:03:39.245Z,0.00
2018-08-22T01:06:21.355Z,0.00
2018-08-22T01:09:03.314Z,0.00
2018-08-22T01:10:04.290Z,0.00
2018-08-22T01:11:03.150Z,0.00
2018-08-22T01:12:04.189Z,0.00
2018-08-22T01:13:03.003Z,0.00
2018-08-22T01:14:03.048Z,0.00
2018-08-22T01:15:02.841Z,0.00
2018-08-22T01:16:02.857Z,0.00
2018-08-22T01:17:02.714Z,0.00
2018-08-22T01:18:02.667Z,0.00
2018-08-22T01:19:02.536Z,0.00
2018-08-22T01:20:02.595Z,0.00
2018-08-22T01:21:02.372Z,0.00
2018-08-22T01:22:02.389Z,0.00
2018-08-22T01:23:02.235Z,0.00
2018-08-22T01:24:02.198Z,0.00
2018-08-22T01:25:02.064Z,0.00
2018-08-22T01:27:44.351Z,0.00
2018-08-22T01:28:44.311Z,0.00
2018-08-22T01:29:44.162Z,0.00
2018-08-22T01:30:44.116Z,0.00
2018-08-22T01:31:44.133Z,0.00
2018-08-22T01:32:44.068Z,0.00
2018-08-22T01:33:43.845Z,0.00
2018-08-22T01:34:43.843Z,0.00
2018-08-22T01:35:43.699Z,0.00
2018-08-22T01:36:43.653Z,0.00
2018-08-22T01:37:43.560Z,0.00
2018-08-22T01:38:43.557Z,0.00
2018-08-22T01:39:43.387Z,0.00
2018-08-22T01:40:43.378Z,0.00
2018-08-22T01:41:43.230Z,0.00
2018-08-22T01:42:43.215Z,0.00
2018-08-22T01:43:43.080Z,0.00
2018-08-22T01:44:43.088Z,0.00
2018-08-22T01:45:42.908Z,0.00
2018-08-22T01:48:24.847Z,0.00
2018-08-22T01:49:24.795Z,0.00
2018-08-22T01:50:24.677Z,0.00
2018-08-22T01:51:24.711Z,0.00
2018-08-22T01:52:24.543Z,0.00
2018-08-22T01:53:24.560Z,0.00
2018-08-22T01:54:24.355Z,0.00
2018-08-22T01:55:24.432Z,0.00
2018-08-22T01:56:24.207Z,0.00
2018-08-22T01:59:06.347Z,0.00
2018-08-22T02:00:06.322Z,0.00
2018-08-22T02:01:06.170Z,0.00
2018-08-22T02:02:06.133Z,0.00
2018-08-22T02:03:06.023Z,0.00
2018-08-22T02:04:06.092Z,0.00
2018-08-22T02:05:05.860Z,0.00
2018-08-22T02:06:05.856Z,0.00
2018-08-22T02:07:05.703Z,0.00
2018-08-22T02:08:05.670Z,0.00
2018-08-22T02:09:05.566Z,0.00
2018-08-22T02:11:47.842Z,0.00
2018-08-22T02:12:49.946Z,0.00
2018-08-22T02:13:47.675Z,0.00
2018-08-22T02:17:11.870Z,0.00
2018-08-22T02:18:11.752Z,0.00
2018-08-22T02:19:11.812Z,0.00
2018-08-22T02:20:11.605Z,0.00
2018-08-22T02:21:11.584Z,0.00
2018-08-22T02:22:11.447Z,0.00
2018-08-22T02:23:11.494Z,0.00
2018-08-22T02:24:11.376Z,0.00
2018-08-22T02:25:11.326Z,0.00
2018-08-22T02:26:11.142Z,0.00
2018-08-22T02:28:53.356Z,0.00
2018-08-22T02:29:53.352Z,0.00
2018-08-22T02:30:53.223Z,0.00
2018-08-22T02:33:35.335Z,0.00
2018-08-22T02:34:35.353Z,0.00
2018-08-22T02:35:35.178Z,0.00
2018-08-22T03:01:57.189Z,0.00
2018-08-22T03:02:57.115Z,0.00
2018-08-22T03:03:57.064Z,0.00
2018-08-22T03:06:38.875Z,0.00
2018-08-22T03:09:20.865Z,0.00
2018-08-22T03:10:20.824Z,0.00
2018-08-22T03:11:20.715Z,0.00
2018-08-22T03:12:21.693Z,0.00
2018-08-22T03:13:20.551Z,0.00
2018-08-22T03:14:20.549Z,0.00
2018-08-22T03:15:20.387Z,0.00
2018-08-22T03:16:20.345Z,0.00
2018-08-22T03:17:20.244Z,0.00
2018-08-22T03:18:20.265Z,0.00
2018-08-22T03:19:20.081Z,0.00
2018-08-22T03:20:20.067Z,0.00
2018-08-22T03:21:19.914Z,0.00
2018-08-22T03:22:19.922Z,0.00
2018-08-22T03:23:19.755Z,0.00
2018-08-22T03:24:19.785Z,0.00
2018-08-22T03:25:19.596Z,0.00
2018-08-22T03:26:19.590Z,0.00
2018-08-22T03:27:19.476Z,0.00
2018-08-22T03:28:19.430Z,0.00
2018-08-22T03:29:19.298Z,0.00
2018-08-22T03:32:01.357Z,0.00
2018-08-22T03:33:01.311Z,0.00
2018-08-22T03:34:01.199Z,0.00
2018-08-22T03:35:01.251Z,0.00
2018-08-22T03:36:01.060Z,0.00
2018-08-22T03:37:01.034Z,0.00
2018-08-22T03:38:00.930Z,0.00
2018-08-22T03:39:00.938Z,0.00
2018-08-22T03:40:00.729Z,0.00
2018-08-22T03:41:00.747Z,0.00
2018-08-22T03:42:00.580Z,0.00
2018-08-22T03:44:25.394Z,0.00
2018-08-22T03:45:26.418Z,0.00
2018-08-22T03:46:25.204Z,0.00
2018-08-22T03:49:07.359Z,0.00
2018-08-22T03:50:07.396Z,0.00
2018-08-22T03:51:07.205Z,0.00
2018-08-22T03:52:07.164Z,0.00
2018-08-22T03:53:07.045Z,0.00
2018-08-22T03:54:07.123Z,0.00
2018-08-22T03:55:06.902Z,0.00
2018-08-22T03:56:06.898Z,0.00
2018-08-22T03:57:06.740Z,0.00
2018-08-22T03:58:06.697Z,0.00
2018-08-22T04:17:28.990Z,0.00
2018-08-22T04:18:28.809Z,0.00
2018-08-22T04:19:29.826Z,0.00
2018-08-22T04:20:28.658Z,0.00
2018-08-22T04:21:28.661Z,5.63
2018-08-22T04:22:28.490Z,5.63
2018-08-22T04:25:10.398Z,5.63
2018-08-22T04:26:10.377Z,5.63
2018-08-22T04:27:10.221Z,5.63
2018-08-22T04:28:10.175Z,5.63
2018-08-22T04:29:10.061Z,11.25
2018-08-22T04:30:10.126Z,11.25
2018-08-22T04:31:09.907Z,11.25
2018-08-22T04:33:51.880Z,11.25
2018-08-22T04:34:52.844Z,16.88
2018-08-22T04:35:51.730Z,16.88
2018-08-22T04:36:51.706Z,16.88
2018-08-22T04:37:51.572Z,16.88
2018-08-22T04:38:51.611Z,16.88
2018-08-22T04:39:51.457Z,22.50
2018-08-22T04:40:51.457Z,22.50
2018-08-22T04:41:51.252Z,22.50
2018-08-22T04:42:51.232Z,22.50
2018-08-22T04:43:51.093Z,28.13
2018-08-22T04:44:51.036Z,28.13
2018-08-22T04:45:50.953Z,33.75
2018-08-22T04:46:50.951Z,33.75
2018-08-22T04:47:50.770Z,39.38
2018-08-22T04:48:50.752Z,39.38
2018-08-22T04:49:50.620Z,39.38
2018-08-22T04:50:50.606Z,45.00
2018-08-22T04:51:50.458Z,45.00
2018-08-22T04:52:50.484Z,45.00
2018-08-22T04:53:50.297Z,50.63
2018-08-22T04:54:50.292Z,50.63
2018-08-22T04:55:50.163Z,50.63
2018-08-22T04:56:54.523Z,50.63
2018-08-22T04:57:49.984Z,50.63
2018-08-22T04:58:49.913Z,56.25
2018-08-22T04:59:49.822Z,56.25
2018-08-22T05:00:49.771Z,61.88
2018-08-22T05:01:49.691Z,61.88
2018-08-22T05:02:49.598Z,67.50
2018-08-22T05:03:49.526Z,73.13
2018-08-22T05:04:49.435Z,73.13
2018-08-22T05:05:49.353Z,78.75
2018-08-22T05:06:49.295Z,78.75
2018-08-22T05:07:49.204Z,84.38
2018-08-22T05:08:49.133Z,84.38
2018-08-22T05:09:49.038Z,84.38
2018-08-22T05:10:48.964Z,90.00
2018-08-22T05:11:48.915Z,90.00
2018-08-22T05:12:48.806Z,95.63
2018-08-22T05:13:48.718Z,95.63
2018-08-22T05:14:48.655Z,101.25
2018-08-22T05:15:48.565Z,101.25
2018-08-22T05:16:49.506Z,106.88
2018-08-22T05:17:48.403Z,106.88
2018-08-22T05:18:48.346Z,106.88
2018-08-22T05:19:48.273Z,112.50
2018-08-22T05:20:48.346Z,112.50
2018-08-22T05:21:48.107Z,118.13
2018-08-22T05:22:48.024Z,118.13
2018-08-22T05:23:47.941Z,123.75
2018-08-22T05:26:29.910Z,129.38
2018-08-22T05:27:29.818Z,129.38
2018-08-22T05:28:29.759Z,135.00
2018-08-22T05:29:29.680Z,135.00
2018-08-22T05:30:29.578Z,140.63
2018-08-22T05:31:29.526Z,140.63
2018-08-22T05:32:29.427Z,140.63
2018-08-22T05:33:29.370Z,140.63
2018-08-22T05:34:29.265Z,146.25
2018-08-22T05:35:29.186Z,151.88
2018-08-22T05:36:29.102Z,151.88
2018-08-22T05:37:29.053Z,157.50
2018-08-22T05:38:28.955Z,157.50
2018-08-22T05:39:28.871Z,163.13
2018-08-22T05:40:28.858Z,163.13
2018-08-22T05:43:10.982Z,168.75
2018-08-22T05:44:10.895Z,174.38
2018-08-22T05:45:10.736Z,180.00
2018-08-22T05:47:52.899Z,185.63
2018-08-22T05:48:53.847Z,191.25
2018-08-22T05:49:52.740Z,196.88
2018-08-22T05:50:52.662Z,202.50
2018-08-22T05:51:52.589Z,196.88
2018-08-22T05:52:52.534Z,202.50
2018-08-22T05:53:52.437Z,202.50
2018-08-22T05:56:34.420Z,208.13
2018-08-22T05:57:34.362Z,213.75
2018-08-22T05:58:34.252Z,213.75
2018-08-22T05:59:34.181Z,219.38
2018-08-22T06:00:34.107Z,219.38
2018-08-22T06:01:34.026Z,225.00
2018-08-22T06:02:33.947Z,230.63
2018-08-22T06:03:33.912Z,236.25
2018-08-22T06:04:33.780Z,247.50
2018-08-22T06:05:33.721Z,258.75
2018-08-22T06:06:33.626Z,258.75
2018-08-22T06:07:33.573Z,270.00
2018-08-22T06:08:33.466Z,286.88
2018-08-22T06:09:33.452Z,298.13
2018-08-22T06:10:33.329Z,315.00
2018-08-22T06:11:33.228Z,371.25
2018-08-22T06:12:33.154Z,624.38
2018-08-22T06:13:33.096Z,933.75
2018-08-22T06:14:33.018Z,1046.25
2018-08-22T06:15:32.955Z,967.50
2018-08-22T06:16:32.835Z,911.25
2018-08-22T06:17:32.770Z,871.88
2018-08-22T06:18:32.679Z,888.75
2018-08-22T06:19:32.627Z,871.88
2018-08-22T06:20:32.528Z,826.88
2018-08-22T06:21:33.478Z,793.13
2018-08-22T06:22:32.382Z,838.13
2018-08-22T06:23:32.315Z,832.50
2018-08-22T06:24:32.225Z,770.63
2018-08-22T06:25:32.224Z,838.13
2018-08-22T06:26:32.124Z,855.00
2018-08-22T06:27:32.006Z,855.00
2018-08-22T06:28:31.925Z,866.25
2018-08-22T06:29:31.846Z,883.13
2018-08-22T06:30:31.788Z,860.63
2018-08-22T06:31:31.701Z,798.75
2018-08-22T06:32:31.615Z,838.13
2018-08-22T06:33:31.571Z,838.13
2018-08-22T06:34:31.491Z,855.00
2018-08-22T06:35:31.423Z,916.88
2018-08-22T06:36:31.365Z,900.00
2018-08-22T06:39:13.433Z,815.63
2018-08-22T06:40:13.369Z,843.75
2018-08-22T06:41:13.277Z,838.13
2018-08-22T06:43:55.444Z,849.38
2018-08-22T06:44:55.357Z,804.38
2018-08-22T06:45:55.292Z,759.38
2018-08-22T06:48:37.421Z,877.50
2018-08-22T06:49:37.351Z,860.63
2018-08-22T06:50:37.304Z,832.50
2018-08-22T06:53:19.425Z,871.88
2018-08-22T06:56:01.443Z,967.50
2018-08-22T06:58:43.550Z,860.63
2018-08-22T06:59:43.382Z,815.63
2018-08-22T07:00:43.346Z,821.25
2018-08-22T07:01:43.237Z,821.25
2018-08-22T07:02:43.160Z,860.63
2018-08-22T07:03:43.071Z,916.88
2018-08-22T07:16:58.817Z,990.00
2018-08-22T07:17:58.731Z,815.63
2018-08-22T07:18:58.674Z,900.00
2018-08-22T07:19:58.610Z,866.25
2018-08-22T07:20:58.552Z,888.75
2018-08-22T07:21:58.451Z,832.50
2018-08-22T07:22:58.382Z,787.50
2018-08-22T07:23:58.301Z,736.88
2018-08-22T07:24:58.236Z,793.13
2018-08-22T07:25:58.162Z,815.63
2018-08-22T07:26:58.082Z,804.38
2018-08-22T07:27:58.086Z,838.13
2018-08-22T07:28:57.969Z,866.25
2018-08-22T07:29:57.966Z,826.88
2018-08-22T07:30:57.821Z,793.13
2018-08-22T07:31:57.743Z,860.63
2018-08-22T07:32:57.685Z,877.50
2018-08-22T07:33:57.644Z,866.25
2018-08-22T07:34:57.548Z,821.25
2018-08-22T07:37:39.449Z,781.88
2018-08-22T07:40:21.470Z,860.63
2018-08-22T07:43:03.468Z,939.38
2018-08-22T07:44:03.409Z,916.88
2018-08-22T07:45:03.338Z,866.25
2018-08-22T07:46:03.243Z,843.75
2018-08-22T07:47:03.163Z,883.13
2018-08-22T07:48:03.127Z,866.25
2018-08-22T07:49:03.021Z,821.25
2018-08-22T07:50:03.044Z,787.50
2018-08-22T07:51:02.897Z,787.50
2018-08-22T07:52:02.829Z,748.13
2018-08-22T07:53:02.762Z,753.75
2018-08-22T07:54:02.707Z,776.25
2018-08-22T07:55:02.634Z,793.13
2018-08-22T07:56:02.552Z,871.88
2018-08-22T07:57:02.463Z,990.00
2018-08-22T07:59:44.476Z,1001.25
2018-08-22T08:00:44.417Z,928.13
2018-08-22T08:01:44.358Z,928.13
2018-08-22T08:02:44.279Z,922.50
2018-08-22T08:03:44.188Z,900.00
2018-08-22T08:04:44.109Z,911.25
2018-08-22T08:05:44.066Z,871.88
2018-08-22T08:08:25.963Z,832.50
2018-08-22T08:09:25.898Z,933.75
2018-08-22T08:10:25.810Z,967.50
2018-08-22T08:11:26.779Z,950.63
2018-08-22T08:12:25.683Z,928.13
2018-08-22T08:15:07.967Z,928.13
2018-08-22T08:16:07.942Z,928.13
2018-08-22T08:17:07.877Z,1006.88
2018-08-22T08:18:07.754Z,967.50
2018-08-22T08:19:07.692Z,1046.25
2018-08-22T08:20:07.613Z,1080.00
2018-08-22T08:21:07.619Z,1113.75
2018-08-22T08:22:07.527Z,1035.00
2018-08-22T08:23:07.413Z,1006.88
2018-08-22T08:24:07.358Z,973.13
2018-08-22T08:25:07.270Z,956.25
2018-08-22T08:26:07.225Z,1023.75
2018-08-22T08:27:07.152Z,1102.50
2018-08-22T08:29:48.966Z,1125.00
2018-08-22T08:30:50.944Z,1040.63
2018-08-22T08:31:48.886Z,1130.63
2018-08-22T08:32:48.781Z,1231.88
2018-08-22T08:33:48.685Z,1271.25
2018-08-22T08:34:48.642Z,1265.63
2018-08-22T08:35:48.623Z,1282.50
2018-08-22T08:36:48.546Z,1282.50
2018-08-22T08:37:48.439Z,1265.63
2018-08-22T08:38:48.373Z,1254.38
2018-08-22T08:39:48.299Z,1248.75
2018-08-22T08:40:48.232Z,1260.00
2018-08-22T08:41:48.379Z,1248.75
2018-08-22T08:42:48.121Z,1271.25
2018-08-22T08:43:48.019Z,1276.88
2018-08-22T08:46:29.977Z,1237.50
2018-08-22T08:47:29.924Z,1260.00
2018-08-22T08:48:29.847Z,1321.88
2018-08-22T08:49:29.824Z,1310.63
2018-08-22T08:50:29.709Z,1226.25
2018-08-22T08:53:11.984Z,1406.25
2018-08-22T08:54:11.924Z,1406.25
2018-08-22T08:55:11.848Z,1580.63
2018-08-22T08:56:11.823Z,2092.50
2018-08-22T08:57:11.815Z,3290.63
2018-08-22T08:58:11.743Z,3836.25
2018-08-22T08:59:11.615Z,3290.63
2018-08-22T09:00:11.516Z,3110.63
2018-08-22T09:01:11.454Z,3240.00
2018-08-22T09:02:11.392Z,3369.38
2018-08-22T09:03:11.316Z,3465.00
2018-08-22T09:04:11.305Z,3397.50
2018-08-22T09:05:11.204Z,3391.88
2018-08-22T09:06:11.134Z,3448.13
2018-08-22T09:07:11.047Z,3566.25
2018-08-22T09:09:53.010Z,3217.50
2018-08-22T09:10:52.991Z,3431.25
2018-08-22T09:11:52.858Z,3465.00
2018-08-22T09:12:52.809Z,3301.88
2018-08-22T09:13:52.768Z,3391.88
2018-08-22T09:14:52.666Z,2795.63
2018-08-22T09:15:52.586Z,3161.25
2018-08-22T09:18:34.505Z,3161.25
2018-08-22T09:19:35.453Z,3161.25
2018-08-22T09:20:34.353Z,3211.88
2018-08-22T09:21:34.370Z,3093.75
2018-08-22T09:22:34.228Z,3251.25
2018-08-22T09:23:34.167Z,2615.63
2018-08-22T09:24:34.140Z,2711.25
2018-08-22T09:25:34.028Z,3211.88
2018-08-22T09:26:33.982Z,3015.00
2018-08-22T09:27:33.901Z,2700.00
2018-08-22T09:28:33.822Z,2655.00
2018-08-22T09:29:33.815Z,2716.88
2018-08-22T09:30:33.747Z,2581.88
2018-08-22T09:33:15.989Z,2598.75
2018-08-22T09:34:15.931Z,2632.50
2018-08-22T09:35:15.911Z,2975.63
2018-08-22T09:36:15.797Z,3093.75
2018-08-22T09:37:15.730Z,3183.75
2018-08-22T09:39:58.057Z,3110.63
2018-08-22T09:40:57.951Z,2688.75
2018-08-22T09:41:57.869Z,2610.00
2018-08-22T09:42:57.808Z,2053.13
2018-08-22T09:43:57.741Z,2812.50
2018-08-22T09:44:57.726Z,2542.50
2018-08-22T09:45:57.643Z,3436.88
2018-08-22T09:46:57.559Z,3526.88
2018-08-22T09:47:57.512Z,3600.00
2018-08-22T09:48:57.433Z,3476.25
2018-08-22T09:49:57.381Z,3223.13
2018-08-22T09:50:57.471Z,3408.75
2018-08-22T09:51:57.258Z,3341.25
2018-08-22T09:54:39.577Z,3414.38
2018-08-22T09:55:39.471Z,3375.00
2018-08-22T09:56:39.376Z,3307.50
2018-08-22T09:57:39.319Z,3369.38
2018-08-22T09:58:39.263Z,3605.63
2018-08-22T09:59:39.212Z,3476.25
2018-08-22T10:00:39.170Z,3583.13
2018-08-22T10:01:39.101Z,3543.75
2018-08-22T10:02:38.978Z,3830.63
2018-08-22T10:05:21.019Z,3285.00
2018-08-22T10:06:21.004Z,3346.88
2018-08-22T10:07:20.896Z,3690.00
2018-08-22T10:08:20.845Z,3729.38
2018-08-22T10:09:20.747Z,3729.38
2018-08-22T10:10:20.722Z,3729.38
2018-08-22T10:11:20.640Z,3853.13
2018-08-22T10:14:02.505Z,3459.38
2018-08-22T10:15:02.454Z,3436.88
2018-08-22T10:16:02.445Z,3740.63
2018-08-22T10:17:02.330Z,3813.75
2018-08-22T10:18:02.256Z,3695.63
2018-08-22T10:20:44.524Z,1603.13
2018-08-22T10:21:44.482Z,3555.00
2018-08-22T10:22:44.424Z,3532.50
2018-08-22T10:23:44.343Z,2829.38
2018-08-22T10:24:44.303Z,3532.50
2018-08-22T10:25:44.197Z,3735.00
2018-08-22T10:26:44.143Z,3768.75
2018-08-22T10:27:44.099Z,3825.00
2018-08-22T10:28:44.034Z,4021.88
2018-08-22T10:29:43.956Z,1867.50
2018-08-22T10:30:43.893Z,4162.50
2018-08-22T10:31:44.856Z,4196.25
2018-08-22T10:32:43.839Z,4179.38
2018-08-22T10:33:43.723Z,4005.00
2018-08-22T10:34:43.644Z,3836.25
2018-08-22T10:35:43.591Z,3538.13
2018-08-22T10:36:43.546Z,2835.00
2018-08-22T10:37:43.498Z,3510.00
2018-08-22T10:38:43.421Z,3870.00
2018-08-22T10:39:43.354Z,3988.13
2018-08-22T10:40:43.281Z,4016.25
2018-08-22T10:41:43.254Z,3926.25
2018-08-22T10:42:43.662Z,3774.38
2018-08-22T10:43:43.101Z,3746.25
2018-08-22T10:44:43.058Z,3555.00
2018-08-22T10:45:42.974Z,3397.50
2018-08-22T10:46:42.894Z,3375.00
2018-08-22T10:47:42.877Z,3166.88
2018-08-22T10:48:42.786Z,3105.00
2018-08-22T10:51:25.005Z,2396.25
2018-08-22T10:52:24.964Z,2356.88
2018-08-22T10:53:24.912Z,2328.75
2018-08-22T10:54:24.848Z,2193.75
2018-08-22T10:55:24.764Z,2092.50
2018-08-22T10:56:24.708Z,2047.50
2018-08-22T10:57:24.814Z,1968.75
2018-08-22T10:58:24.611Z,1906.88
2018-08-22T10:59:24.518Z,1867.50
2018-08-22T11:00:24.483Z,1890.00
2018-08-22T11:01:24.412Z,1867.50
2018-08-22T11:04:06.543Z,1800.00
2018-08-22T11:05:06.481Z,1766.25
2018-08-22T11:06:06.405Z,1805.63
2018-08-22T11:08:48.534Z,1811.25
2018-08-22T11:11:30.519Z,1732.50
2018-08-22T11:14:12.545Z,1755.00
2018-08-22T11:16:54.526Z,1428.75
2018-08-22T11:17:54.472Z,1327.50
2018-08-22T11:18:54.417Z,1378.13
2018-08-22T11:21:36.518Z,1333.13
2018-08-22T11:22:36.472Z,1265.63
2018-08-22T11:23:36.446Z,1271.25
2018-08-22T11:24:36.368Z,1355.63
2018-08-22T11:25:36.281Z,1580.63
2018-08-22T11:26:36.236Z,1575.00
2018-08-22T11:27:36.178Z,1569.38
2018-08-22T11:28:36.100Z,1546.88
2018-08-22T11:29:36.061Z,1513.13
2018-08-22T11:30:35.981Z,1428.75
2018-08-22T11:31:35.914Z,1687.50
2018-08-22T11:34:18.047Z,1501.88
2018-08-22T11:35:18.020Z,1355.63
2018-08-22T11:36:17.897Z,1344.38
2018-08-22T11:37:17.851Z,1372.50
2018-08-22T11:38:17.793Z,1372.50
2018-08-22T11:39:17.736Z,1501.88
2018-08-22T11:40:17.672Z,1591.88
2018-08-22T11:41:17.613Z,1653.75
2018-08-22T11:42:17.561Z,1569.38
2018-08-22T11:43:17.477Z,1310.63
2018-08-22T11:44:17.410Z,1305.00
2018-08-22T11:45:17.385Z,1293.75
2018-08-22T11:46:17.285Z,1226.25
2018-08-22T11:47:17.228Z,1265.63
2018-08-22T11:48:17.167Z,1248.75
2018-08-22T11:49:17.126Z,1361.25
2018-08-22T11:50:17.046Z,1327.50
2018-08-22T11:51:18.027Z,1310.63
2018-08-22T11:52:16.914Z,1350.00
2018-08-22T11:54:59.038Z,1254.38
2018-08-22T11:55:59.244Z,1215.00
2018-08-22T11:56:58.961Z,1355.63
2018-08-22T11:57:58.854Z,1372.50
2018-08-22T11:58:58.792Z,1406.25
2018-08-22T12:01:41.059Z,1383.75
2018-08-22T12:04:23.071Z,781.88
2018-08-22T12:05:22.984Z,697.50
2018-08-22T12:06:22.933Z,680.63
2018-08-22T12:07:22.857Z,714.38
2018-08-22T12:08:22.782Z,686.25
2018-08-22T12:09:22.726Z,691.88
2018-08-22T12:10:22.653Z,675.00
2018-08-22T12:11:22.639Z,680.63
2018-08-22T12:12:22.539Z,663.75
2018-08-22T12:13:22.487Z,646.88
2018-08-22T12:14:22.393Z,618.75
2018-08-22T12:15:22.350Z,607.50
2018-08-22T12:16:22.264Z,590.63
2018-08-22T12:17:23.220Z,573.75
2018-08-22T12:18:22.128Z,585.00
2018-08-22T12:19:22.113Z,579.38
2018-08-22T12:20:22.021Z,579.38
2018-08-22T12:21:22.027Z,585.00
2018-08-22T12:22:21.903Z,590.63
2018-08-22T12:23:21.883Z,579.38
2018-08-22T12:24:21.732Z,585.00
2018-08-22T12:25:21.778Z,573.75
2018-08-22T12:26:21.596Z,601.88
2018-08-22T12:27:21.699Z,585.00
2018-08-22T12:28:21.444Z,601.88
2018-08-22T12:29:21.468Z,607.50
2018-08-22T12:30:21.331Z,607.50
2018-08-22T12:31:21.390Z,596.25
2018-08-22T12:32:21.228Z,590.63
2018-08-22T12:33:21.209Z,579.38
2018-08-22T12:34:21.048Z,585.00
2018-08-22T12:35:21.107Z,585.00
2018-08-22T12:36:20.900Z,579.38
2018-08-22T12:37:20.900Z,579.38
2018-08-22T12:38:20.772Z,568.13
2018-08-22T12:39:20.820Z,545.63
2018-08-22T12:40:20.637Z,534.38
2018-08-22T12:41:20.574Z,540.00
2018-08-22T12:42:20.554Z,528.75
2018-08-22T12:43:20.559Z,506.25
2018-08-22T12:44:20.361Z,500.63
2018-08-22T12:45:20.343Z,495.00
2018-08-22T12:46:20.214Z,483.75
2018-08-22T12:47:20.259Z,478.13
2018-08-22T12:48:20.123Z,433.13
2018-08-22T12:49:20.061Z,427.50
2018-08-22T12:50:19.966Z,438.75
2018-08-22T12:51:20.085Z,438.75
2018-08-22T12:52:19.815Z,466.88
2018-08-22T12:53:19.818Z,472.50
2018-08-22T12:54:19.699Z,478.13
2018-08-22T12:55:19.683Z,483.75
2018-08-22T12:56:19.542Z,495.00
2018-08-22T12:57:19.539Z,495.00
2018-08-22T12:58:19.427Z,495.00
2018-08-22T12:59:19.465Z,489.38
2018-08-22T13:00:19.255Z,483.75
2018-08-22T13:01:19.223Z,478.13
2018-08-22T13:02:19.087Z,472.50
2018-08-22T13:03:19.170Z,478.13
2018-08-22T13:04:18.995Z,478.13
2018-08-22T13:05:18.939Z,472.50
2018-08-22T13:06:18.820Z,472.50
2018-08-22T13:07:18.842Z,478.13
2018-08-22T13:08:18.695Z,478.13
2018-08-22T13:09:18.717Z,461.25
2018-08-22T13:10:18.551Z,466.88
2018-08-22T13:11:19.083Z,495.00
2018-08-22T13:12:18.394Z,483.75
2018-08-22T13:13:18.372Z,472.50
2018-08-22T13:14:18.309Z,472.50
2018-08-22T13:15:18.284Z,472.50
2018-08-22T13:16:18.142Z,455.63
2018-08-22T13:17:18.105Z,444.38
2018-08-22T13:18:18.066Z,433.13
2018-08-22T13:19:18.352Z,433.13
2018-08-22T13:20:18.184Z,433.13
2018-08-22T13:23:00.074Z,427.50
2018-08-22T13:24:00.177Z,427.50
2018-08-22T13:24:59.988Z,399.38
2018-08-22T13:25:59.937Z,421.88
2018-08-22T13:26:59.810Z,416.25
2018-08-22T13:27:59.834Z,427.50
2018-08-22T13:28:59.750Z,427.50
2018-08-22T13:29:59.615Z,421.88
2018-08-22T13:30:59.518Z,433.13
2018-08-22T13:31:59.572Z,438.75
2018-08-22T13:51:21.415Z,343.13
2018-08-22T13:52:21.400Z,354.38
2018-08-22T13:53:21.253Z,360.00
2018-08-22T13:54:21.317Z,354.38
2018-08-22T13:55:21.121Z,343.13
2018-08-22T13:56:21.280Z,343.13
2018-08-22T13:57:20.981Z,343.13
2018-08-22T13:58:20.935Z,360.00
2018-08-22T13:59:20.832Z,337.50
2018-08-22T14:00:20.844Z,337.50
2018-08-22T14:01:20.734Z,331.88
2018-08-22T14:02:20.648Z,331.88
2018-08-22T14:03:20.559Z,337.50
2018-08-22T14:04:20.572Z,326.25
2018-08-22T14:05:20.399Z,326.25
2018-08-22T14:06:20.379Z,331.88
2018-08-22T14:07:20.379Z,320.63
2018-08-22T14:08:20.284Z,320.63
2018-08-22T14:09:20.137Z,315.00
2018-08-22T14:10:20.089Z,326.25
2018-08-22T14:11:19.975Z,315.00
2018-08-22T14:12:20.031Z,315.00
2018-08-22T14:13:19.830Z,320.63
2018-08-22T14:14:19.809Z,309.38
2018-08-22T14:15:19.684Z,315.00
2018-08-22T14:16:19.723Z,315.00
2018-08-22T14:17:19.584Z,331.88
2018-08-22T14:18:19.547Z,326.25
2018-08-22T14:19:19.413Z,326.25
2018-08-22T14:20:19.468Z,320.63
2018-08-22T14:21:19.256Z,315.00
2018-08-22T14:22:19.261Z,315.00
2018-08-22T14:23:19.146Z,320.63
2018-08-22T14:24:19.157Z,315.00
2018-08-22T14:25:18.984Z,309.38
2018-08-22T14:26:18.969Z,309.38
2018-08-22T14:27:18.894Z,315.00
2018-08-22T14:28:18.955Z,309.38
2018-08-22T14:29:18.692Z,303.75
2018-08-22T14:30:18.712Z,309.38
2018-08-22T14:31:18.557Z,309.38
2018-08-22T14:32:18.608Z,320.63
2018-08-22T14:33:18.434Z,309.38
2018-08-22T14:34:18.446Z,315.00
2018-08-22T14:35:18.280Z,326.25
2018-08-22T14:38:00.108Z,292.50
2018-08-22T14:39:00.171Z,298.13
2018-08-22T14:39:59.945Z,292.50
2018-08-22T14:41:00.025Z,292.50
2018-08-22T14:41:59.813Z,286.88
2018-08-22T14:42:59.861Z,281.25
2018-08-22T14:43:59.691Z,286.88
2018-08-22T14:44:59.648Z,303.75
2018-08-22T14:45:59.526Z,298.13
2018-08-22T14:46:59.478Z,298.13
2018-08-22T14:47:59.386Z,298.13
2018-08-22T14:48:59.420Z,298.13
2018-08-22T14:49:59.237Z,298.13
2018-08-22T14:50:59.265Z,298.13
2018-08-22T14:51:59.107Z,309.38
2018-08-22T14:52:59.063Z,309.38
2018-08-22T14:53:58.991Z,298.13
2018-08-22T14:54:58.984Z,320.63
2018-08-22T14:55:58.855Z,303.75
2018-08-22T14:58:41.173Z,292.50
2018-08-22T14:59:41.111Z,281.25
2018-08-22T15:00:40.962Z,258.75
2018-08-22T15:01:41.005Z,270.00
2018-08-22T15:02:40.850Z,275.63
2018-08-22T15:05:05.633Z,275.63
2018-08-22T15:06:05.618Z,275.63
2018-08-22T15:07:05.466Z,270.00
2018-08-22T15:09:47.643Z,270.00
2018-08-22T15:10:49.673Z,264.38
2018-08-22T15:11:47.483Z,264.38
2018-08-22T15:12:47.496Z,264.38
2018-08-22T15:13:47.349Z,275.63
2018-08-22T15:14:47.368Z,264.38
2018-08-22T15:15:47.180Z,270.00
2018-08-22T15:38:09.619Z,225.00
2018-08-22T15:39:09.537Z,225.00
2018-08-22T15:41:51.675Z,236.25
2018-08-22T15:42:54.320Z,230.63
2018-08-22T15:43:51.493Z,236.25
2018-08-22T15:46:45.150Z,236.25
2018-08-22T15:47:45.170Z,219.38
2018-08-22T15:48:44.982Z,219.38
2018-08-22T15:49:45.433Z,225.00
2018-08-22T15:50:44.837Z,230.63
2018-08-22T15:51:44.812Z,219.38
2018-08-22T15:52:44.716Z,213.75
2018-08-22T15:53:44.641Z,225.00
2018-08-22T15:54:44.649Z,236.25
2018-08-22T15:55:44.538Z,225.00
2018-08-22T15:56:44.416Z,219.38
2018-08-22T15:57:44.372Z,213.75
2018-08-22T15:58:44.281Z,208.13
2018-08-22T15:59:44.273Z,202.50